createdAt,value
2022-08-22T00:02:20.604Z,100582.55
2022-08-22T00:02:44.827Z,100614.30
2022-08-22T00:02:55.978Z,100612.42
2022-08-22T00:04:58.486Z,100579.20
2022-08-22T00:07:44.316Z,100574.17
2022-08-22T00:10:25.550Z,100584.64
2022-08-22T00:13:06.907Z,100580.45
2022-08-22T00:15:44.317Z,100585.42
2022-08-22T00:18:23.841Z,100580.61
2022-08-22T00:21:13.644Z,100586.30
2022-08-22T00:23:52.661Z,100586.76
2022-08-22T00:26:45.436Z,100585.05
2022-08-22T00:29:20.682Z,100584.86
2022-08-22T00:31:52.863Z,100585.69
2022-08-22T00:34:31.180Z,100587.36
2022-08-22T00:37:08.455Z,100587.17
2022-08-22T00:39:45.063Z,100585.44
2022-08-22T00:42:56.313Z,100585.65
2022-08-22T00:45:56.651Z,100590.34
2022-08-22T00:48:47.618Z,100590.00
2022-08-22T00:51:55.984Z,100594.16
2022-08-22T00:54:39.753Z,100595.96
2022-08-22T00:57:30.503Z,100595.42
2022-08-22T01:00:13.040Z,100597.27
2022-08-22T01:03:02.913Z,100584.66
2022-08-22T01:05:50.903Z,100605.46
2022-08-22T01:08:54.451Z,100602.64
2022-08-22T01:11:49.973Z,100606.38
2022-08-22T01:14:38.915Z,100607.42
2022-08-22T01:17:28.270Z,100608.17
2022-08-22T01:20:29.865Z,100616.48
2022-08-22T01:23:42.021Z,100615.80
2022-08-22T01:27:02.060Z,100620.47
2022-08-22T01:30:14.044Z,100620.38
2022-08-22T01:33:09.816Z,100623.36
2022-08-22T01:39:13.739Z,100628.75
2022-08-22T01:42:16.857Z,100629.21
2022-08-22T01:45:10.820Z,100625.86
2022-08-22T01:47:50.480Z,100620.58
2022-08-22T01:50:32.876Z,100624.27
2022-08-22T01:53:09.796Z,100615.27
2022-08-22T01:55:53.536Z,100629.51
2022-08-22T01:58:28.801Z,100629.55
2022-08-22T02:01:20.395Z,100626.22
2022-08-22T02:04:04.402Z,100621.82
2022-08-22T02:06:46.007Z,100620.13
2022-08-22T02:09:31.797Z,100592.70
2022-08-22T02:12:29.637Z,100618.80
2022-08-22T02:15:16.680Z,100618.50
2022-08-22T02:18:12.395Z,100622.05
2022-08-22T02:21:05.053Z,100610.42
2022-08-22T02:23:48.132Z,100623.30
2022-08-22T02:26:26.468Z,100627.02
2022-08-22T02:29:05.983Z,100625.96
2022-08-22T02:31:45.377Z,100616.08
2022-08-22T02:34:40.834Z,100628.73
2022-08-22T02:37:22.144Z,100627.98
2022-08-22T02:40:08.855Z,100622.14
2022-08-22T02:42:46.192Z,100622.21
2022-08-22T02:45:30.884Z,100618.09
2022-08-22T02:48:12.663Z,100618.02
2022-08-22T02:50:53.009Z,100618.99
2022-08-22T02:53:34.566Z,100616.73
2022-08-22T02:56:12.695Z,100603.90
2022-08-22T02:58:53.446Z,100623.27
2022-08-22T03:01:43.550Z,100626.41
2022-08-22T03:04:25.645Z,100630.52
2022-08-22T03:07:16.265Z,100631.64
2022-08-22T03:09:58.521Z,100629.17
2022-08-22T03:12:38.913Z,100624.58
2022-08-22T03:15:22.259Z,100619.63
2022-08-22T03:18:01.638Z,100620.86
2022-08-22T03:20:47.350Z,100623.74
2022-08-22T03:23:32.581Z,100618.88
2022-08-22T03:26:14.340Z,100617.81
2022-08-22T03:28:59.273Z,100615.42
2022-08-22T03:31:33.967Z,100619.73
2022-08-22T03:34:32.135Z,100617.57
2022-08-22T03:37:13.234Z,100615.85
2022-08-22T03:40:01.024Z,100617.80
2022-08-22T03:42:56.938Z,100616.75
2022-08-22T03:46:17.807Z,100614.98
2022-08-22T03:49:17.939Z,100601.56
2022-08-22T03:52:20.454Z,100615.66
2022-08-22T03:55:19.534Z,100614.58
2022-08-22T03:58:27.994Z,100613.11
2022-08-22T04:01:28.064Z,100616.16
2022-08-22T04:04:24.033Z,100616.33
2022-08-22T04:07:31.778Z,100617.64
2022-08-22T04:10:49.874Z,100622.59
2022-08-22T04:13:52.935Z,100621.63
2022-08-22T04:17:10.293Z,100628.39
2022-08-22T04:20:20.894Z,100632.98
2022-08-22T04:23:16.133Z,100635.48
2022-08-22T04:25:54.285Z,100645.00
2022-08-22T04:28:37.940Z,100639.59
2022-08-22T04:31:13.568Z,100639.71
2022-08-22T04:33:50.933Z,100642.89
2022-08-22T04:36:27.866Z,100645.62
2022-08-22T04:39:04.769Z,100645.02
2022-08-22T04:41:46.813Z,100647.35
2022-08-22T04:44:27.449Z,100653.17
2022-08-22T04:47:03.982Z,100651.17
2022-08-22T04:49:40.526Z,100655.61
2022-08-22T04:52:20.924Z,100656.38
2022-08-22T04:55:02.750Z,100658.05
2022-08-22T04:57:48.950Z,100657.38
2022-08-22T05:00:21.462Z,100658.03
2022-08-22T05:02:59.029Z,100657.59
2022-08-22T05:05:39.588Z,100655.13
2022-08-22T05:08:18.547Z,100658.43
2022-08-22T05:10:53.106Z,100658.61
2022-08-22T05:13:30.101Z,100658.04
2022-08-22T05:16:06.994Z,100659.52
2022-08-22T05:18:46.693Z,100661.73
2022-08-22T05:21:23.721Z,100664.97
2022-08-22T05:24:04.274Z,100667.83
2022-08-22T05:26:41.762Z,100663.14
2022-08-22T05:29:20.310Z,100667.95
2022-08-22T05:31:57.803Z,100667.59
2022-08-22T05:34:34.209Z,100671.73
2022-08-22T05:37:14.301Z,100667.23
2022-08-22T05:39:50.089Z,100669.12
2022-08-22T05:42:31.446Z,100650.25
2022-08-22T05:45:11.510Z,100672.10
2022-08-22T05:47:52.041Z,100673.58
2022-08-22T05:50:35.461Z,100672.67
2022-08-22T05:53:11.004Z,100674.98
2022-08-22T05:55:56.462Z,100681.51
2022-08-22T05:58:45.145Z,100680.95
2022-08-22T06:01:25.001Z,100681.84
2022-08-22T06:04:04.456Z,100684.23
2022-08-22T06:06:41.187Z,100679.50
2022-08-22T06:09:20.740Z,100680.57
2022-08-22T06:11:59.041Z,100681.71
2022-08-22T06:14:41.606Z,100683.44
2022-08-22T06:17:17.788Z,100685.58
2022-08-22T06:19:53.861Z,100688.39
2022-08-22T06:22:29.233Z,100689.98
2022-08-22T06:25:07.444Z,100689.56
2022-08-22T06:27:40.253Z,100686.60
2022-08-22T06:30:17.544Z,100676.48
2022-08-22T06:32:59.435Z,100688.80
2022-08-22T06:35:50.919Z,100691.59
2022-08-22T06:38:26.969Z,100689.14
2022-08-22T06:41:03.981Z,100684.45
2022-08-22T06:43:43.227Z,100681.35
2022-08-22T06:46:18.292Z,100687.52
2022-08-22T06:48:54.785Z,100694.57
2022-08-22T06:51:31.470Z,100692.38
2022-08-22T06:54:06.946Z,100698.14
2022-08-22T06:56:44.614Z,100698.02
2022-08-22T06:59:20.230Z,100695.65
2022-08-22T07:01:56.254Z,100698.34
2022-08-22T07:04:29.206Z,100693.82
2022-08-22T07:07:02.887Z,100681.29
2022-08-22T07:09:39.096Z,100701.70
2022-08-22T07:12:19.574Z,100701.89
2022-08-22T07:14:58.935Z,100702.30
2022-08-22T07:17:35.930Z,100703.96
2022-08-22T07:20:28.075Z,100700.02
2022-08-22T07:23:03.682Z,100700.45
2022-08-22T07:25:49.585Z,100706.16
2022-08-22T07:28:36.637Z,100706.77
2022-08-22T07:31:16.804Z,100708.92
2022-08-22T07:33:54.246Z,100709.36
2022-08-22T07:36:36.014Z,100707.75
2022-08-22T07:39:21.634Z,100709.09
2022-08-22T07:42:11.379Z,100707.42
2022-08-22T07:45:02.978Z,100699.04
2022-08-22T07:47:52.696Z,100709.14
2022-08-22T07:50:30.228Z,100706.19
2022-08-22T07:53:19.623Z,100704.68
2022-08-22T07:55:53.784Z,100707.95
2022-08-22T07:58:29.611Z,100708.96
2022-08-22T08:01:02.274Z,100709.80
2022-08-22T08:03:35.466Z,100710.04
2022-08-22T08:06:09.574Z,100709.23
2022-08-22T08:08:45.738Z,100710.45
2022-08-22T08:11:21.040Z,100713.27
2022-08-22T08:13:58.474Z,100716.45
2022-08-22T08:16:34.516Z,100717.77
2022-08-22T08:19:08.154Z,100718.59
2022-08-22T08:21:44.439Z,100719.39
2022-08-22T08:24:21.719Z,100718.05
2022-08-22T08:27:16.117Z,100717.40
2022-08-22T08:29:59.023Z,100719.13
2022-08-22T08:32:36.224Z,100715.98
2022-08-22T08:35:18.088Z,100715.63
2022-08-22T08:37:55.466Z,100715.67
2022-08-22T08:40:56.296Z,100714.36
2022-08-22T08:43:41.817Z,100715.53
2022-08-22T08:46:36.615Z,100719.55
2022-08-22T08:52:52.919Z,100712.42
2022-08-22T08:55:41.335Z,100720.07
2022-08-22T08:58:33.848Z,100733.64
2022-08-22T09:01:27.679Z,100723.92
2022-08-22T09:04:27.566Z,100723.22
2022-08-22T09:07:25.017Z,100723.14
2022-08-22T09:10:41.260Z,100720.72
2022-08-22T09:13:34.517Z,100716.20
2022-08-22T09:16:27.420Z,100711.60
2022-08-22T09:19:30.930Z,100710.30
2022-08-22T09:22:50.196Z,100713.23
2022-08-22T09:25:36.799Z,100715.77
2022-08-22T09:28:20.008Z,100710.83
2022-08-22T09:34:13.449Z,100707.52
2022-08-22T09:37:13.912Z,100701.64
2022-08-22T09:39:57.557Z,100699.64
2022-08-22T09:40:16.579Z,100728.23
2022-08-22T09:58:27.874Z,100695.73
2022-08-22T10:01:09.547Z,100701.51
2022-08-22T10:04:12.690Z,100701.48
2022-08-22T10:06:57.063Z,100701.75
2022-08-22T10:09:36.681Z,100696.13
2022-08-22T10:12:16.780Z,100699.24
2022-08-22T10:15:06.872Z,100701.21
2022-08-22T10:17:46.351Z,100696.89
2022-08-22T10:20:27.713Z,100695.37
2022-08-22T10:23:08.349Z,100698.76
2022-08-22T10:25:49.939Z,100699.02
2022-08-22T10:28:40.183Z,100697.31
2022-08-22T10:31:27.394Z,100697.95
2022-08-22T10:34:09.716Z,100700.49
2022-08-22T10:36:58.270Z,100697.55
2022-08-22T10:39:39.934Z,100698.59
2022-08-22T10:42:28.450Z,100699.30
2022-08-22T10:45:23.883Z,100695.31
2022-08-22T10:48:35.214Z,100700.91
2022-08-22T10:51:16.646Z,100703.74
2022-08-22T10:54:27.431Z,100703.05
2022-08-22T10:57:14.397Z,100702.84
2022-08-22T11:00:02.699Z,100705.04
2022-08-22T11:02:53.394Z,100705.85
2022-08-22T11:05:32.843Z,100704.11
2022-08-22T11:08:40.748Z,100703.38
2022-08-22T11:11:21.493Z,100697.48
2022-08-22T11:14:21.133Z,100706.98
2022-08-22T11:17:09.151Z,100708.58
2022-08-22T11:20:14.461Z,100716.20
2022-08-22T11:22:55.756Z,100712.23
2022-08-22T11:25:41.419Z,100712.60
2022-08-22T11:28:34.397Z,100713.46
2022-08-22T11:31:19.915Z,100705.78
2022-08-22T11:33:59.749Z,100711.73
2022-08-22T11:36:40.647Z,100709.41
2022-08-22T11:39:23.012Z,100717.75
2022-08-22T11:42:06.724Z,100707.75
2022-08-22T11:44:50.766Z,100716.64
2022-08-22T11:47:29.074Z,100714.23
2022-08-22T11:50:13.263Z,100715.96
2022-08-22T11:53:08.505Z,100714.44
2022-08-22T11:55:49.313Z,100719.40
2022-08-22T11:58:34.522Z,100721.76
2022-08-22T12:01:17.400Z,100726.01
2022-08-22T12:04:03.448Z,100727.02
2022-08-22T12:06:46.836Z,100728.33
2022-08-22T12:09:37.920Z,100730.80
2022-08-22T12:12:31.323Z,100727.30
2022-08-22T12:15:12.887Z,100726.61
2022-08-22T12:18:13.484Z,100723.50
2022-08-22T12:21:15.136Z,100720.84
2022-08-22T12:24:11.160Z,100710.41
2022-08-22T12:27:00.884Z,100728.40
2022-08-22T12:29:46.180Z,100732.36
2022-08-22T12:32:49.209Z,100729.02
2022-08-22T12:35:33.258Z,100728.84
2022-08-22T12:38:28.102Z,100727.52
2022-08-22T12:41:28.477Z,100728.44
2022-08-22T12:44:25.959Z,100721.92
2022-08-22T12:47:10.939Z,100726.28
2022-08-22T12:50:04.924Z,100714.86
2022-08-22T12:52:55.273Z,100715.91
2022-08-22T12:55:43.630Z,100709.98
2022-08-22T12:58:33.075Z,100708.59
2022-08-22T13:01:09.390Z,100708.05
2022-08-22T13:03:48.515Z,100703.23
2022-08-22T13:06:50.583Z,100702.30
2022-08-22T13:09:31.645Z,100699.27
2022-08-22T13:12:24.079Z,100698.39
2022-08-22T13:15:01.297Z,100693.33
2022-08-22T13:17:36.422Z,100695.88
2022-08-22T13:20:14.451Z,100696.17
2022-08-22T13:22:51.440Z,100704.59
2022-08-22T13:25:29.980Z,100699.04
2022-08-22T13:28:04.873Z,100695.88
2022-08-22T13:30:41.303Z,100687.28
2022-08-22T13:33:17.385Z,100687.51
2022-08-22T13:35:54.283Z,100683.66
2022-08-22T13:38:30.634Z,100678.02
2022-08-22T13:41:05.440Z,100675.77
2022-08-22T13:43:55.797Z,100680.59
2022-08-22T13:46:31.502Z,100687.91
2022-08-22T13:49:12.556Z,100683.64
2022-08-22T13:51:52.428Z,100679.16
2022-08-22T13:54:52.557Z,100662.95
2022-08-22T13:57:29.003Z,100673.87
2022-08-22T14:00:22.385Z,100674.93
2022-08-22T14:03:08.286Z,100677.97
2022-08-22T14:05:45.567Z,100675.78
2022-08-22T14:08:21.002Z,100672.15
2022-08-22T14:11:06.685Z,100656.17
2022-08-22T14:13:44.278Z,100664.90
2022-08-22T14:16:33.765Z,100664.13
2022-08-22T14:19:10.505Z,100661.39
2022-08-22T14:21:51.920Z,100658.58
2022-08-22T14:24:28.510Z,100657.58
2022-08-22T14:27:06.292Z,100655.29
2022-08-22T14:29:45.093Z,100652.72
2022-08-22T14:32:49.158Z,100657.63
2022-08-22T14:35:35.340Z,100645.94
2022-08-22T14:38:27.362Z,100647.20
2022-08-22T14:41:06.992Z,100657.46
2022-08-22T14:43:57.193Z,100662.83
2022-08-22T14:46:36.350Z,100666.04
2022-08-22T14:49:28.708Z,100660.59
2022-08-22T14:52:06.224Z,100665.87
2022-08-22T14:54:38.952Z,100665.40
2022-08-22T14:57:20.316Z,100664.24
2022-08-22T14:59:55.119Z,100662.77
2022-08-22T15:02:31.520Z,100661.38
2022-08-22T15:05:18.426Z,100663.71
2022-08-22T15:07:59.210Z,100658.64
2022-08-22T15:10:35.868Z,100658.21
2022-08-22T15:13:11.474Z,100658.13
2022-08-22T15:15:54.969Z,100657.96
2022-08-22T15:18:38.988Z,100663.80
2022-08-22T15:21:14.284Z,100662.16
2022-08-22T15:23:51.698Z,100657.77
2022-08-22T15:26:28.216Z,100654.24
2022-08-22T15:29:07.957Z,100652.01
2022-08-22T15:31:41.640Z,100655.80
2022-08-22T15:34:29.825Z,100661.74
2022-08-22T15:37:29.640Z,100660.58
2022-08-22T15:40:11.928Z,100662.90
2022-08-22T15:42:48.559Z,100665.38
2022-08-22T15:45:39.607Z,100659.66
2022-08-22T15:48:29.432Z,100654.59
2022-08-22T15:51:09.182Z,100654.17
2022-08-22T15:54:02.787Z,100650.75
2022-08-22T15:57:18.512Z,100651.73
2022-08-22T15:59:59.636Z,100641.57
2022-08-22T16:02:36.457Z,100649.73
2022-08-22T16:05:30.582Z,100651.69
2022-08-22T16:08:07.890Z,100647.07
2022-08-22T16:10:44.416Z,100647.42
2022-08-22T16:13:41.788Z,100641.20
2022-08-22T16:16:32.886Z,100643.83
2022-08-22T16:19:25.513Z,100642.32
2022-08-22T16:22:17.145Z,100643.54
2022-08-22T16:25:06.005Z,100645.60
2022-08-22T16:27:52.200Z,100632.43
2022-08-22T16:30:38.952Z,100643.26
2022-08-22T16:33:17.780Z,100645.67
2022-08-22T16:36:25.280Z,100650.04
2022-08-22T16:38:59.128Z,100647.98
2022-08-22T16:41:42.042Z,100653.68
2022-08-22T16:44:43.179Z,100652.44
2022-08-22T16:47:20.141Z,100655.73
2022-08-22T16:50:04.525Z,100655.08
2022-08-22T16:52:56.362Z,100654.98
2022-08-22T16:55:50.627Z,100652.21
2022-08-22T16:59:19.694Z,100652.44
2022-08-22T17:02:12.584Z,100653.65
2022-08-22T17:04:54.922Z,100653.06
2022-08-22T17:07:37.265Z,100655.41
2022-08-22T17:10:26.610Z,100656.98
2022-08-22T17:13:26.464Z,100658.73
2022-08-22T17:16:15.817Z,100658.33
2022-08-22T17:19:05.513Z,100660.25
2022-08-22T17:21:53.563Z,100655.52
2022-08-22T17:24:34.962Z,100656.50
2022-08-22T17:27:17.767Z,100655.70
2022-08-22T17:30:04.040Z,100656.21
2022-08-22T17:33:00.009Z,100655.09
2022-08-22T17:35:46.542Z,100655.09
2022-08-22T17:38:27.868Z,100657.22
2022-08-22T17:41:10.147Z,100658.95
2022-08-22T17:43:55.908Z,100660.08
2022-08-22T17:46:41.087Z,100659.98
2022-08-22T17:49:15.698Z,100661.40
2022-08-22T17:51:56.913Z,100658.61
2022-08-22T17:54:40.478Z,100663.13
2022-08-22T17:57:23.623Z,100668.73
2022-08-22T18:00:04.800Z,100673.55
2022-08-22T18:02:44.066Z,100660.98
2022-08-22T18:05:30.224Z,100655.50
2022-08-22T18:08:37.797Z,100667.91
2022-08-22T18:11:16.324Z,100673.23
2022-08-22T18:13:57.579Z,100672.15
2022-08-22T18:16:33.855Z,100672.45
2022-08-22T18:19:13.911Z,100666.08
2022-08-22T18:21:56.272Z,100670.91
2022-08-22T18:24:35.889Z,100671.08
2022-08-22T18:27:34.817Z,100672.48
2022-08-22T18:30:19.818Z,100672.39
2022-08-22T18:33:00.428Z,100673.42
2022-08-22T18:35:41.662Z,100676.00
2022-08-22T18:38:23.373Z,100674.48
2022-08-22T18:41:05.444Z,100676.80
2022-08-22T18:43:44.579Z,100680.98
2022-08-22T18:46:42.751Z,100678.73
2022-08-22T18:49:43.383Z,100677.71
2022-08-22T18:52:21.007Z,100674.08
2022-08-22T18:55:23.633Z,100683.13
2022-08-22T18:58:40.931Z,100684.35
2022-08-22T19:01:44.318Z,100688.35
2022-08-22T19:04:31.794Z,100684.89
2022-08-22T19:07:25.283Z,100691.42
2022-08-22T19:10:20.740Z,100694.59
2022-08-22T19:13:21.733Z,100681.20
2022-08-22T19:16:06.948Z,100697.30
2022-08-22T19:18:52.223Z,100702.44
2022-08-22T19:21:47.650Z,100701.72
2022-08-22T19:24:57.564Z,100697.51
2022-08-22T19:27:34.547Z,100699.21
2022-08-22T19:30:30.208Z,100700.56
2022-08-22T19:33:03.215Z,100700.75
2022-08-22T19:36:09.092Z,100703.08
2022-08-22T19:38:56.836Z,100702.95
2022-08-22T19:41:52.626Z,100703.87
2022-08-22T19:44:42.282Z,100705.26
2022-08-22T19:47:28.136Z,100709.36
2022-08-22T19:50:06.122Z,100710.26
2022-08-22T19:52:53.077Z,100705.25
2022-08-22T19:55:51.058Z,100711.13
2022-08-22T19:58:33.633Z,100704.98
2022-08-22T20:01:27.103Z,100706.70
2022-08-22T20:04:05.551Z,100704.52
2022-08-22T20:06:44.665Z,100710.45
2022-08-22T20:09:34.992Z,100713.27
2022-08-22T20:12:16.606Z,100712.33
2022-08-22T20:14:50.157Z,100707.38
2022-08-22T20:17:43.791Z,100686.92
2022-08-22T20:20:36.068Z,100696.98
2022-08-22T20:23:23.941Z,100695.34
2022-08-22T20:25:57.330Z,100688.84
2022-08-22T20:28:41.275Z,100689.30
2022-08-22T20:31:24.614Z,100683.77
2022-08-22T20:34:03.288Z,100683.82
2022-08-22T20:36:35.909Z,100680.87
2022-08-22T20:39:17.221Z,100686.86
2022-08-22T20:41:55.245Z,100684.65
2022-08-22T20:44:31.648Z,100670.96
2022-08-22T20:47:10.341Z,100679.98
2022-08-22T20:49:48.219Z,100687.81
2022-08-22T20:52:28.527Z,100681.59
2022-08-22T20:55:09.429Z,100673.58
2022-08-22T20:57:48.518Z,100680.40
2022-08-22T21:00:24.363Z,100682.84
2022-08-22T21:03:00.361Z,100683.38
2022-08-22T21:05:39.312Z,100681.52
2022-08-22T21:08:16.660Z,100680.41
2022-08-22T21:11:18.459Z,100684.76
2022-08-22T21:13:51.789Z,100685.01
2022-08-22T21:16:31.633Z,100681.55
2022-08-22T21:19:04.314Z,100678.00
2022-08-22T21:21:38.098Z,100672.53
2022-08-22T21:24:12.017Z,100660.06
2022-08-22T21:26:51.535Z,100670.69
2022-08-22T21:29:32.756Z,100663.53
2022-08-22T21:32:23.449Z,100660.16
2022-08-22T21:34:56.737Z,100663.39
2022-08-22T21:37:39.934Z,100661.80
2022-08-22T21:40:17.709Z,100659.61
2022-08-22T21:43:06.483Z,100664.91
2022-08-22T21:45:45.145Z,100656.77
2022-08-22T21:48:40.328Z,100658.41
2022-08-22T21:51:39.098Z,100658.92
2022-08-22T21:54:42.676Z,100662.45
2022-08-22T21:57:34.514Z,100662.78
2022-08-22T22:00:30.501Z,100658.86
2022-08-22T22:03:03.427Z,100659.04
2022-08-22T22:05:40.783Z,100660.34
2022-08-22T22:08:13.776Z,100661.84
2022-08-22T22:10:47.752Z,100640.83
2022-08-22T22:13:20.774Z,100658.84
2022-08-22T22:15:57.167Z,100655.34
2022-08-22T22:18:33.628Z,100652.77
2022-08-22T22:21:06.507Z,100652.12
2022-08-22T22:23:38.770Z,100650.00
2022-08-22T22:26:12.317Z,100642.42
2022-08-22T22:28:50.267Z,100639.27
2022-08-22T22:31:22.784Z,100632.23
2022-08-22T22:33:55.141Z,100618.45
2022-08-22T22:36:29.379Z,100624.38
2022-08-22T22:39:01.845Z,100625.92
2022-08-22T22:41:34.310Z,100625.39
2022-08-22T22:44:07.215Z,100624.66
2022-08-22T22:46:39.383Z,100626.19
2022-08-22T22:49:11.610Z,100626.27
2022-08-22T22:51:43.776Z,100635.51
2022-08-22T22:54:16.599Z,100637.15
2022-08-22T22:56:49.503Z,100638.69
2022-08-22T22:59:24.566Z,100626.52
2022-08-22T23:02:06.405Z,100640.21
2022-08-22T23:04:42.638Z,100627.14
2022-08-22T23:07:18.402Z,100643.88
2022-08-22T23:09:50.677Z,100643.48
2022-08-22T23:12:25.737Z,100641.05
2022-08-22T23:14:58.013Z,100640.64
2022-08-22T23:17:31.101Z,100637.75
2022-08-22T23:20:03.979Z,100636.83
2022-08-22T23:22:36.552Z,100639.92
2022-08-22T23:25:09.958Z,100640.67
2022-08-22T23:27:42.382Z,100642.77
2022-08-22T23:30:15.604Z,100646.69
2022-08-22T23:32:47.967Z,100645.81
2022-08-22T23:35:21.106Z,100641.98
2022-08-22T23:37:53.591Z,100637.34
2022-08-22T23:40:25.784Z,100635.34
2022-08-22T23:42:59.338Z,100635.33
2022-08-22T23:45:32.005Z,100634.15
2022-08-22T23:48:04.401Z,100637.21
2022-08-22T23:50:36.862Z,100635.70
2022-08-22T23:53:08.893Z,100634.64
2022-08-22T23:55:41.144Z,100633.27
2022-08-22T23:58:15.503Z,100630.29
